createdAt,value
2023-04-02T00:01:43.056Z,60.95
2023-04-02T00:05:16.394Z,64.22
2023-04-02T00:08:42.066Z,62.28
2023-04-02T00:12:16.389Z,60.11
2023-04-02T00:15:43.637Z,59.03
2023-04-02T00:19:14.710Z,63.12
2023-04-02T00:22:32.403Z,64.51
2023-04-02T00:25:57.986Z,61.84
2023-04-02T00:29:24.063Z,60.83
2023-04-02T00:32:50.069Z,60.40
2023-04-02T00:36:15.930Z,59.03
2023-04-02T00:39:42.506Z,61.82
2023-04-02T00:43:09.142Z,64.79
2023-04-02T00:46:46.852Z,61.70
2023-04-02T00:50:21.083Z,59.83
2023-04-02T00:53:48.482Z,60.69
2023-04-02T00:57:18.026Z,64.61
2023-04-02T01:00:49.884Z,64.24
2023-04-02T01:04:34.657Z,61.56
2023-04-02T01:08:06.221Z,60.86
2023-04-02T01:11:39.389Z,60.24
2023-04-02T01:15:09.809Z,59.62
2023-04-02T01:18:47.078Z,61.12
2023-04-02T01:22:18.333Z,64.27
2023-04-02T01:25:45.004Z,61.81
2023-04-02T01:29:12.917Z,59.49
2023-04-02T01:32:21.182Z,62.27
2023-04-02T01:35:50.140Z,64.96
2023-04-02T01:39:13.482Z,62.56
2023-04-02T01:42:42.772Z,61.54
2023-04-02T01:46:25.832Z,59.36
2023-04-02T01:49:54.475Z,62.79
2023-04-02T01:53:21.487Z,61.53
2023-04-02T01:56:47.242Z,59.62
2023-04-02T02:00:16.093Z,60.65
2023-04-02T02:03:43.755Z,65.91
2023-04-02T02:07:14.467Z,62.77
2023-04-02T02:10:40.903Z,61.50
2023-04-02T02:14:12.801Z,59.20
2023-04-02T02:17:37.245Z,62.48
2023-04-02T02:21:06.216Z,63.38
2023-04-02T02:24:28.215Z,61.76
2023-04-02T02:27:54.107Z,60.33
2023-04-02T02:31:19.217Z,59.21
2023-04-02T02:34:41.651Z,60.55
2023-04-02T02:38:24.066Z,64.29
2023-04-02T02:41:52.718Z,62.43
2023-04-02T02:45:03.364Z,61.18
2023-04-02T02:48:35.760Z,59.33
2023-04-02T02:52:02.180Z,61.69
2023-04-02T02:55:29.964Z,64.40
2023-04-02T02:58:54.177Z,61.44
2023-04-02T03:02:20.129Z,60.31
2023-04-02T03:05:51.189Z,61.13
2023-04-02T03:09:20.415Z,63.63
2023-04-02T03:12:50.220Z,61.10
2023-04-02T03:16:01.983Z,59.94
2023-04-02T03:19:30.888Z,63.73
2023-04-02T03:22:57.727Z,61.71
2023-04-02T03:26:24.002Z,58.94
2023-04-02T03:29:54.885Z,59.55
2023-04-02T03:33:22.621Z,63.02
2023-04-02T03:36:53.375Z,63.13
2023-04-02T03:40:21.878Z,58.66
2023-04-02T03:43:48.811Z,59.87
2023-04-02T03:47:18.018Z,64.21
2023-04-02T03:50:27.486Z,61.96
2023-04-02T03:53:36.034Z,60.29
2023-04-02T03:57:02.055Z,57.90
2023-04-02T04:00:16.479Z,61.33
2023-04-02T04:03:25.561Z,63.35
2023-04-02T04:06:45.796Z,60.17
2023-04-02T04:10:18.339Z,61.58
2023-04-02T04:13:46.982Z,62.02
2023-04-02T04:17:14.153Z,59.62
2023-04-02T04:20:46.116Z,60.46
2023-04-02T04:24:08.496Z,63.52
2023-04-02T04:27:33.700Z,61.20
2023-04-02T04:30:54.367Z,58.42
2023-04-02T04:34:23.178Z,62.25
2023-04-02T04:37:53.699Z,62.70
2023-04-02T04:41:22.640Z,58.90
2023-04-02T04:44:52.911Z,60.53
2023-04-02T04:48:20.323Z,63.87
2023-04-02T04:51:49.607Z,61.09
2023-04-02T04:55:25.710Z,58.84
2023-04-02T04:58:54.191Z,63.14
2023-04-02T05:02:23.994Z,61.96
2023-04-02T05:05:41.503Z,60.45
2023-04-02T05:09:14.805Z,58.95
2023-04-02T05:12:35.868Z,60.22
2023-04-02T05:16:03.354Z,64.15
2023-04-02T05:19:35.673Z,62.15
2023-04-02T05:23:04.181Z,59.56
2023-04-02T05:26:32.923Z,62.63
2023-04-02T05:30:01.752Z,61.54
2023-04-02T05:33:28.505Z,59.36
2023-04-02T05:36:47.086Z,59.45
2023-04-02T05:40:14.995Z,63.05
2023-04-02T05:43:35.630Z,62.69
2023-04-02T05:47:03.643Z,59.41
2023-04-02T05:50:31.672Z,58.30
2023-04-02T05:53:59.742Z,62.44
2023-04-02T06:00:59.835Z,59.27
2023-04-02T06:04:28.883Z,58.18
2023-04-02T06:07:58.269Z,61.66
2023-04-02T06:11:27.124Z,62.72
2023-04-02T06:14:53.431Z,60.22
2023-04-02T06:18:16.211Z,59.02
2023-04-02T06:21:25.216Z,60.93
2023-04-02T06:24:54.972Z,63.54
2023-04-02T06:28:13.234Z,61.71
2023-04-02T06:31:40.198Z,59.31
2023-04-02T06:35:06.151Z,59.21
2023-04-02T06:38:26.690Z,62.52
2023-04-02T06:41:57.238Z,60.81
2023-04-02T06:45:25.246Z,58.36
2023-04-02T06:49:06.852Z,62.40
2023-04-02T06:52:35.058Z,62.20
2023-04-02T06:56:04.314Z,59.86
2023-04-02T06:59:29.982Z,58.94
2023-04-02T07:02:56.479Z,61.84
2023-04-02T07:06:22.658Z,62.28
2023-04-02T07:09:48.272Z,58.54
2023-04-02T07:13:16.644Z,58.32
2023-04-02T07:16:32.934Z,61.18
2023-04-02T07:19:58.900Z,62.17
2023-04-02T07:23:25.040Z,59.31
2023-04-02T07:26:50.735Z,60.75
2023-04-02T07:29:59.384Z,63.18
2023-04-02T07:33:16.536Z,60.98
2023-04-02T07:36:42.273Z,56.70
2023-04-02T07:40:16.543Z,59.60
2023-04-02T07:43:43.129Z,61.87
2023-04-02T07:47:10.591Z,62.38
2023-04-02T07:50:36.761Z,58.13
2023-04-02T07:54:03.069Z,59.57
2023-04-02T07:57:28.842Z,62.64
2023-04-02T08:00:37.579Z,60.99
2023-04-02T08:04:04.502Z,58.38
2023-04-02T08:07:30.326Z,60.40
2023-04-02T08:10:56.549Z,62.01
2023-04-02T08:14:22.154Z,62.36
2023-04-02T08:17:41.528Z,57.99
2023-04-02T08:21:08.941Z,59.80
2023-04-02T08:24:24.617Z,62.02
2023-04-02T08:27:39.526Z,61.37
2023-04-02T08:31:05.291Z,58.30
2023-04-02T08:34:30.919Z,59.61
2023-04-02T08:37:56.521Z,61.54
2023-04-02T08:41:27.558Z,62.31
2023-04-02T08:44:56.382Z,58.62
2023-04-02T08:48:23.449Z,59.61
2023-04-02T08:51:49.203Z,61.50
2023-04-02T08:55:23.577Z,62.53
2023-04-02T08:58:51.042Z,58.45
2023-04-02T09:02:28.205Z,57.74
2023-04-02T09:05:54.519Z,59.39
2023-04-02T09:09:00.351Z,61.28
2023-04-02T09:12:27.787Z,61.99
2023-04-02T09:15:41.841Z,62.40
2023-04-02T09:19:01.043Z,59.01
2023-04-02T09:22:27.329Z,55.82
2023-04-02T09:25:39.548Z,57.86
2023-04-02T09:29:17.676Z,59.81
2023-04-02T09:32:49.043Z,61.15
2023-04-02T09:36:27.316Z,61.88
2023-04-02T09:39:45.533Z,62.41
2023-04-02T09:43:14.045Z,60.36
2023-04-02T09:46:48.415Z,56.79
2023-04-02T09:50:24.296Z,57.28
2023-04-02T09:53:34.425Z,58.61
2023-04-02T09:57:04.430Z,59.27
2023-04-02T10:00:32.480Z,60.29
2023-04-02T10:03:59.664Z,61.01
2023-04-02T10:07:31.996Z,60.39
2023-04-02T10:10:58.706Z,61.28
2023-04-02T10:14:20.134Z,60.84
2023-04-02T10:17:48.306Z,60.03
2023-04-02T10:21:07.374Z,59.40
2023-04-02T10:24:23.230Z,59.15
2023-04-02T10:27:45.982Z,59.24
2023-04-02T10:31:17.382Z,59.45
2023-04-02T10:34:49.765Z,59.84
2023-04-02T10:38:25.408Z,59.38
2023-04-02T10:41:54.485Z,59.77
2023-04-02T10:45:03.520Z,60.30
2023-04-02T10:48:33.997Z,60.18
2023-04-02T10:52:03.455Z,60.21
2023-04-02T10:55:31.529Z,60.06
2023-04-02T10:59:00.492Z,59.93
2023-04-02T11:02:32.132Z,60.20
2023-04-02T11:05:58.605Z,60.19
2023-04-02T11:09:26.682Z,60.22
2023-04-02T11:12:44.193Z,60.20
2023-04-02T11:15:59.077Z,60.23
2023-04-02T11:19:26.405Z,60.10
2023-04-02T11:26:54.440Z,60.01
2023-04-02T11:30:20.252Z,59.91
2023-04-02T11:33:46.029Z,60.11
2023-04-02T11:37:11.223Z,60.16
2023-04-02T11:40:51.396Z,60.68
2023-04-02T11:44:22.938Z,60.89
2023-04-02T11:48:11.302Z,60.67
2023-04-02T11:51:56.382Z,60.76
2023-04-02T11:55:27.381Z,59.55
2023-04-02T11:58:55.723Z,59.30
2023-04-02T12:02:20.958Z,57.81
2023-04-02T12:05:53.909Z,56.48
2023-04-02T12:09:16.486Z,55.85
2023-04-02T12:12:39.397Z,55.91
2023-04-02T12:16:02.455Z,54.68
2023-04-02T12:19:18.074Z,54.82
2023-04-02T12:22:47.380Z,55.36
2023-04-02T12:26:24.185Z,55.08
2023-04-02T12:29:47.049Z,54.64
2023-04-02T12:32:56.200Z,55.62
2023-04-02T12:36:20.021Z,56.63
2023-04-02T12:39:51.444Z,56.35
2023-04-02T12:43:22.746Z,57.19
2023-04-02T12:46:39.596Z,56.27
2023-04-02T12:50:02.790Z,56.63
2023-04-02T12:53:20.838Z,55.22
2023-04-02T12:56:44.057Z,55.20
2023-04-02T12:59:47.585Z,55.99
2023-04-02T13:03:16.337Z,55.40
2023-04-02T13:06:30.308Z,55.37
2023-04-02T13:09:54.399Z,55.53
2023-04-02T13:13:21.295Z,54.80
2023-04-02T13:16:44.311Z,54.04
2023-04-02T13:20:23.927Z,54.01
2023-04-02T13:23:37.786Z,54.81
2023-04-02T13:27:01.714Z,54.87
2023-04-02T13:30:21.427Z,54.61
2023-04-02T13:33:38.158Z,54.21
2023-04-02T13:36:53.768Z,54.18
2023-04-02T13:40:18.633Z,53.54
2023-04-02T13:43:41.505Z,52.89
2023-04-02T13:47:04.714Z,53.01
2023-04-02T13:50:28.331Z,53.62
2023-04-02T13:53:52.765Z,52.64
2023-04-02T13:57:16.184Z,52.73
2023-04-02T14:00:39.189Z,52.33
2023-04-02T14:03:57.260Z,51.85
2023-04-02T14:07:37.702Z,52.77
2023-04-02T14:11:08.451Z,53.02
2023-04-02T14:14:48.774Z,51.70
2023-04-02T14:18:23.666Z,52.22
2023-04-02T14:21:44.061Z,52.05
2023-04-02T14:25:08.001Z,52.68
2023-04-02T14:28:19.955Z,52.97
2023-04-02T14:31:44.054Z,52.24
2023-04-02T14:35:12.881Z,52.29
2023-04-02T14:38:39.914Z,52.67
2023-04-02T14:42:06.104Z,51.29
2023-04-02T14:45:37.005Z,51.71
2023-04-02T14:48:45.443Z,51.09
2023-04-02T14:52:11.717Z,50.06
2023-04-02T14:55:37.303Z,50.00
2023-04-02T14:59:07.709Z,48.76
2023-04-02T15:02:36.102Z,47.79
2023-04-02T15:05:53.999Z,47.47
2023-04-02T15:09:18.653Z,47.43
2023-04-02T15:12:43.592Z,46.70
2023-04-02T15:16:11.469Z,47.21
2023-04-02T15:19:34.686Z,45.81
2023-04-02T15:23:01.564Z,45.08
2023-04-02T15:26:21.543Z,45.60
2023-04-02T15:29:48.925Z,44.65
2023-04-02T15:33:29.633Z,44.82
2023-04-02T15:36:58.373Z,44.83
2023-04-02T15:40:26.632Z,44.80
2023-04-02T15:43:57.207Z,45.42
2023-04-02T15:47:23.734Z,45.31
2023-04-02T15:50:52.642Z,46.20
2023-04-02T15:54:12.588Z,45.47
2023-04-02T15:57:45.447Z,45.30
2023-04-02T16:01:11.174Z,45.71
2023-04-02T16:04:45.981Z,45.64
2023-04-02T16:08:10.178Z,44.79
2023-04-02T16:11:13.846Z,44.22
2023-04-02T16:14:38.728Z,42.75
2023-04-02T16:18:03.055Z,41.94
2023-04-02T16:21:28.873Z,42.12
2023-04-02T16:24:57.584Z,42.59
2023-04-02T16:28:24.154Z,42.80
2023-04-02T16:31:50.009Z,42.03
2023-04-02T16:38:36.808Z,39.20
2023-04-02T16:42:05.454Z,39.35
2023-04-02T16:45:30.719Z,39.48
2023-04-02T16:48:57.192Z,39.12
2023-04-02T16:52:25.682Z,39.02
2023-04-02T16:55:54.067Z,39.07
2023-04-02T16:59:22.797Z,40.18
2023-04-02T17:02:51.366Z,40.20
2023-04-02T17:06:19.738Z,41.28
2023-04-02T17:09:45.283Z,41.99
2023-04-02T17:13:17.272Z,42.89
2023-04-02T17:16:36.457Z,43.64
2023-04-02T17:20:00.488Z,44.15
2023-04-02T17:23:24.443Z,44.81
2023-04-02T17:26:50.274Z,45.66
2023-04-02T17:30:15.694Z,46.67
2023-04-02T17:33:26.261Z,47.04
2023-04-02T17:36:44.269Z,47.99
2023-04-02T17:40:13.365Z,48.39
2023-04-02T17:43:42.412Z,49.56
2023-04-02T17:47:11.126Z,50.56
2023-04-02T17:50:38.318Z,50.67
2023-04-02T17:54:07.163Z,51.61
2023-04-02T17:57:39.136Z,52.16
2023-04-02T18:01:07.329Z,53.10
2023-04-02T18:04:18.316Z,52.98
2023-04-02T18:07:35.680Z,52.81
2023-04-02T18:11:02.974Z,53.08
2023-04-02T18:14:35.666Z,53.32
2023-04-02T18:18:02.068Z,53.74
2023-04-02T18:21:30.509Z,53.55
2023-04-02T18:25:03.400Z,53.59
2023-04-02T18:28:33.316Z,53.82
2023-04-02T18:32:01.008Z,54.15
2023-04-02T18:35:26.584Z,54.13
2023-04-02T18:38:53.877Z,54.30
2023-04-02T18:42:18.189Z,54.08
2023-04-02T18:45:48.680Z,53.98
2023-04-02T18:49:19.217Z,53.97
2023-04-02T18:52:42.194Z,53.82
2023-04-02T18:56:07.148Z,53.74
2023-04-02T18:59:36.513Z,53.81
2023-04-02T19:03:02.702Z,53.93
2023-04-02T19:06:22.568Z,54.12
2023-04-02T19:09:47.747Z,54.27
2023-04-02T19:13:13.836Z,54.54
2023-04-02T19:16:56.960Z,54.66
2023-04-02T19:20:26.302Z,54.79
2023-04-02T19:23:58.049Z,55.23
2023-04-02T19:27:25.258Z,55.48
2023-04-02T19:30:53.041Z,55.80
2023-04-02T19:34:20.275Z,56.15
2023-04-02T19:37:46.036Z,56.15
2023-04-02T19:41:12.164Z,56.50
2023-04-02T19:44:35.804Z,56.63
2023-04-02T19:48:00.490Z,56.87
2023-04-02T19:51:16.209Z,56.83
2023-04-02T19:54:39.321Z,57.30
2023-04-02T19:57:44.561Z,57.63
2023-04-02T20:01:07.635Z,57.90
2023-04-02T20:04:31.339Z,57.89
2023-04-02T20:07:46.848Z,58.71
2023-04-02T20:11:10.000Z,58.79
2023-04-02T20:14:32.991Z,59.51
2023-04-02T20:17:48.621Z,59.18
2023-04-02T20:21:11.593Z,60.01
2023-04-02T20:24:34.527Z,60.09
2023-04-02T20:27:57.468Z,59.83
2023-04-02T20:31:20.854Z,59.99
2023-04-02T20:34:44.417Z,59.85
2023-04-02T20:38:08.546Z,59.79
2023-04-02T20:41:21.633Z,59.93
2023-04-02T20:44:38.332Z,60.31
2023-04-02T20:48:01.498Z,59.92
2023-04-02T20:51:24.398Z,60.37
2023-04-02T20:54:47.167Z,60.57
2023-04-02T20:58:10.610Z,60.59
2023-04-02T21:01:33.567Z,60.72
2023-04-02T21:04:56.659Z,60.49
2023-04-02T21:08:20.512Z,60.62
2023-04-02T21:11:44.156Z,60.90
2023-04-02T21:15:10.904Z,61.16
2023-04-02T21:18:33.862Z,61.33
2023-04-02T21:21:56.825Z,61.63
2023-04-02T21:25:19.781Z,61.55
2023-04-02T21:28:43.112Z,61.41
2023-04-02T21:32:18.025Z,61.42
2023-04-02T21:35:46.194Z,63.18
2023-04-02T21:39:10.431Z,56.51
2023-04-02T21:42:33.405Z,56.94
2023-04-02T21:45:58.670Z,59.07
2023-04-02T21:49:22.201Z,60.21
2023-04-02T21:52:46.198Z,62.01
2023-04-02T21:56:11.257Z,62.27
2023-04-02T21:59:34.334Z,62.07
2023-04-02T22:02:57.374Z,57.79
2023-04-02T22:06:21.468Z,57.39
2023-04-02T22:09:44.539Z,59.89
2023-04-02T22:13:08.163Z,61.50
2023-04-02T22:16:32.274Z,63.90
2023-04-02T22:19:55.572Z,59.01
2023-04-02T22:23:19.490Z,57.59
2023-04-02T22:26:43.649Z,60.33
2023-04-02T22:30:08.703Z,62.03
2023-04-02T22:33:31.981Z,63.11
2023-04-02T22:36:55.787Z,57.45
2023-04-02T22:40:18.580Z,58.90
2023-04-02T22:43:43.229Z,61.03
2023-04-02T22:47:06.365Z,63.90
2023-04-02T22:50:29.312Z,60.67
2023-04-02T22:53:53.573Z,57.35
2023-04-02T22:57:16.501Z,59.45
2023-04-02T23:00:39.457Z,63.23
2023-04-02T23:04:06.232Z,63.12
2023-04-02T23:07:29.367Z,57.97
2023-04-02T23:10:52.539Z,58.33
2023-04-02T23:14:15.584Z,61.79
2023-04-02T23:17:38.579Z,64.68
2023-04-02T23:21:01.872Z,60.91
2023-04-02T23:24:24.838Z,57.78
2023-04-02T23:27:47.946Z,59.80
2023-04-02T23:31:13.186Z,63.73
2023-04-02T23:34:36.390Z,62.09
2023-04-02T23:37:59.411Z,58.81
2023-04-02T23:41:23.521Z,60.16
2023-04-02T23:44:46.555Z,63.24
2023-04-02T23:48:09.533Z,63.31
2023-04-02T23:51:32.503Z,58.92
2023-04-02T23:54:55.530Z,59.81
2023-04-02T23:58:18.605Z,61.77
